createdAt,value
2019-04-20T00:00:58.579Z,34.64
2019-04-20T00:03:50.147Z,34.64
2019-04-20T00:06:47.806Z,34.85
2019-04-20T00:09:36.594Z,35.19
2019-04-20T00:12:37.452Z,35.17
2019-04-20T00:15:15.628Z,35.17
2019-04-20T00:18:08.088Z,35.21
2019-04-20T00:21:12.615Z,35.25
2019-04-20T00:24:09.218Z,35.35
2019-04-20T00:27:14.598Z,35.25
2019-04-20T00:29:58.827Z,35.41
2019-04-20T00:32:50.023Z,35.45
2019-04-20T00:35:31.401Z,35.48
2019-04-20T00:38:22.798Z,35.63
2019-04-20T00:41:15.979Z,35.60
2019-04-20T00:44:11.164Z,35.74
2019-04-20T00:47:11.158Z,36.19
2019-04-20T00:50:04.062Z,36.35
2019-04-20T00:52:55.273Z,36.38
2019-04-20T00:55:33.818Z,36.48
2019-04-20T00:58:31.006Z,36.74
2019-04-20T01:01:40.736Z,37.03
2019-04-20T01:04:25.602Z,37.25
2019-04-20T01:07:20.578Z,37.45
2019-04-20T01:10:09.222Z,37.63
2019-04-20T01:13:06.743Z,37.91
2019-04-20T01:16:01.015Z,38.03
2019-04-20T01:18:43.761Z,38.18
2019-04-20T01:21:35.510Z,38.22
2019-04-20T01:24:37.147Z,38.33
2019-04-20T01:27:39.567Z,38.48
2019-04-20T01:30:26.245Z,38.61
2019-04-20T01:33:26.052Z,38.81
2019-04-20T01:36:22.730Z,38.90
2019-04-20T01:39:06.955Z,39.04
2019-04-20T01:41:45.499Z,39.17
2019-04-20T01:44:40.182Z,39.43
2019-04-20T01:47:32.300Z,39.59
2019-04-20T01:50:25.656Z,39.69
2019-04-20T01:53:23.753Z,39.66
2019-04-20T01:56:17.089Z,39.75
2019-04-20T01:59:34.823Z,39.98
2019-04-20T02:02:56.694Z,40.18
2019-04-20T02:05:42.209Z,40.43
2019-04-20T02:08:34.236Z,40.55
2019-04-20T02:11:29.608Z,40.76
2019-04-20T02:14:24.233Z,40.83
2019-04-20T02:17:19.923Z,40.81
2019-04-20T02:20:22.837Z,41.26
2019-04-20T02:23:03.153Z,41.15
2019-04-20T02:25:43.987Z,41.28
2019-04-20T02:29:00.733Z,41.31
2019-04-20T02:32:10.117Z,41.21
2019-04-20T02:35:03.386Z,41.30
2019-04-20T02:41:03.259Z,41.45
2019-04-20T02:46:49.607Z,41.49
2019-04-20T02:49:42.029Z,41.62
2019-04-20T02:52:44.147Z,41.46
2019-04-20T02:55:22.544Z,41.57
2019-04-20T02:58:11.319Z,41.67
2019-04-20T03:00:52.674Z,41.73
2019-04-20T03:03:33.991Z,41.72
2019-04-20T03:06:26.447Z,41.71
2019-04-20T03:09:33.015Z,41.85
2019-04-20T03:12:23.736Z,41.94
2019-04-20T03:15:09.713Z,42.03
2019-04-20T03:18:03.385Z,42.20
2019-04-20T03:20:58.198Z,42.48
2019-04-20T03:23:57.288Z,42.67
2019-04-20T03:26:57.878Z,43.06
2019-04-20T03:30:04.258Z,43.12
2019-04-20T03:35:52.873Z,43.43
2019-04-20T03:38:34.910Z,43.70
2019-04-20T03:41:18.304Z,43.74
2019-04-20T03:44:03.175Z,43.84
2019-04-20T03:46:57.005Z,43.85
2019-04-20T03:50:02.726Z,43.90
2019-04-20T03:53:04.149Z,44.01
2019-04-20T03:56:11.719Z,44.17
2019-04-20T03:59:10.405Z,44.44
2019-04-20T04:05:23.846Z,44.66
2019-04-20T04:08:10.619Z,44.90
2019-04-20T04:11:12.355Z,44.84
2019-04-20T04:13:42.029Z,44.96
2019-04-20T04:16:41.900Z,45.27
2019-04-20T04:19:30.011Z,45.24
2019-04-20T04:22:37.030Z,45.50
2019-04-20T04:25:22.195Z,45.62
2019-04-20T04:28:13.762Z,45.67
2019-04-20T04:31:14.682Z,45.82
2019-04-20T04:34:02.398Z,45.98
2019-04-20T04:36:53.768Z,46.29
2019-04-20T04:39:47.454Z,46.31
2019-04-20T04:42:42.373Z,46.66
2019-04-20T04:45:13.783Z,46.68
2019-04-20T04:47:59.883Z,46.63
2019-04-20T04:50:56.475Z,46.71
2019-04-20T04:53:51.110Z,46.76
2019-04-20T04:56:33.635Z,46.84
2019-04-20T04:59:23.615Z,46.94
2019-04-20T05:02:13.805Z,46.86
2019-04-20T05:05:37.025Z,46.85
2019-04-20T05:08:15.444Z,46.86
2019-04-20T05:11:00.701Z,46.81
2019-04-20T05:13:56.631Z,46.87
2019-04-20T05:16:59.370Z,46.90
2019-04-20T05:19:52.628Z,47.14
2019-04-20T05:22:45.515Z,47.09
2019-04-20T05:26:05.194Z,47.02
2019-04-20T05:28:47.254Z,46.79
2019-04-20T05:31:33.993Z,47.01
2019-04-20T05:34:40.098Z,46.80
2019-04-20T05:37:35.830Z,47.11
2019-04-20T05:40:22.491Z,47.04
2019-04-20T05:43:26.383Z,46.68
2019-04-20T05:46:18.399Z,46.47
2019-04-20T05:49:14.053Z,46.06
2019-04-20T05:51:56.144Z,45.85
2019-04-20T05:54:51.360Z,45.81
2019-04-20T05:57:44.777Z,45.38
2019-04-20T06:00:39.021Z,44.33
2019-04-20T06:03:20.357Z,44.57
2019-04-20T06:06:15.440Z,43.49
2019-04-20T06:09:12.251Z,42.34
2019-04-20T06:12:16.246Z,41.68
2019-04-20T06:14:55.894Z,41.74
2019-04-20T06:18:12.352Z,41.44
2019-04-20T06:21:22.503Z,40.84
2019-04-20T06:24:18.150Z,40.20
2019-04-20T06:27:21.561Z,39.48
2019-04-20T06:29:55.921Z,38.67
2019-04-20T06:34:01.100Z,38.43
2019-04-20T06:36:40.030Z,38.21
2019-04-20T06:42:23.409Z,38.15
2019-04-20T06:45:27.731Z,37.63
2019-04-20T06:48:21.668Z,36.91
2019-04-20T06:50:57.209Z,35.91
2019-04-20T06:53:54.025Z,35.79
2019-04-20T06:56:54.495Z,35.55
2019-04-20T06:59:50.510Z,35.24
2019-04-20T07:02:41.711Z,34.97
2019-04-20T07:05:34.690Z,34.46
2019-04-20T07:08:40.697Z,33.83
2019-04-20T07:11:18.703Z,33.13
2019-04-20T07:13:54.393Z,32.41
2019-04-20T07:17:41.554Z,31.96
2019-04-20T07:20:19.653Z,31.32
2019-04-20T07:23:23.872Z,30.50
2019-04-20T07:26:12.730Z,30.06
2019-04-20T07:28:59.046Z,29.76
2019-04-20T07:31:50.054Z,29.53
2019-04-20T07:34:40.111Z,28.84
2019-04-20T07:38:03.190Z,28.02
2019-04-20T07:40:30.175Z,27.29
2019-04-20T07:43:26.652Z,27.45
2019-04-20T07:46:20.863Z,27.38
2019-04-20T07:49:07.443Z,27.36
2019-04-20T07:51:41.807Z,27.15
2019-04-20T07:55:12.436Z,26.33
2019-04-20T07:57:39.128Z,26.19
2019-04-20T08:00:44.777Z,25.96
2019-04-20T08:06:17.475Z,24.82
2019-04-20T08:09:17.241Z,24.75
2019-04-20T08:12:29.317Z,25.46
2019-04-20T08:15:27.351Z,25.42
2019-04-20T08:18:12.088Z,24.66
2019-04-20T08:20:59.156Z,24.71
2019-04-20T08:23:49.012Z,24.81
2019-04-20T08:26:27.107Z,24.40
2019-04-20T08:29:37.876Z,24.09
2019-04-20T08:33:09.469Z,24.29
2019-04-20T08:36:12.255Z,24.26
2019-04-20T08:39:12.732Z,24.19
2019-04-20T08:41:50.375Z,24.52
2019-04-20T08:47:48.595Z,25.29
2019-04-20T08:50:27.110Z,25.15
2019-04-20T08:53:30.802Z,25.14
2019-04-20T08:56:09.761Z,25.39
2019-04-20T08:58:48.182Z,25.78
2019-04-20T09:01:39.403Z,25.90
2019-04-20T09:04:38.743Z,25.82
2019-04-20T09:07:26.374Z,25.81
2019-04-20T09:10:39.229Z,25.68
2019-04-20T09:13:19.728Z,25.89
2019-04-20T09:15:58.063Z,25.92
2019-04-20T09:18:55.510Z,25.91
2019-04-20T09:21:50.241Z,25.71
2019-04-20T09:24:54.280Z,25.52
2019-04-20T09:27:33.038Z,25.22
2019-04-20T09:30:27.831Z,25.50
2019-04-20T09:34:04.352Z,25.72
2019-04-20T09:36:56.380Z,25.62
2019-04-20T09:40:00.851Z,25.20
2019-04-20T09:42:40.997Z,25.17
2019-04-20T09:45:47.630Z,24.30
2019-04-20T09:48:41.731Z,24.73
2019-04-20T09:51:46.676Z,23.79
2019-04-20T09:54:40.443Z,23.70
2019-04-20T09:57:29.602Z,23.44
2019-04-20T10:00:20.259Z,23.26
2019-04-20T10:02:55.106Z,22.13
2019-04-20T10:05:45.392Z,22.22
2019-04-20T10:08:44.736Z,22.14
2019-04-20T10:11:27.615Z,21.87
2019-04-20T10:14:17.597Z,21.60
2019-04-20T10:17:07.796Z,21.22
2019-04-20T10:20:03.474Z,21.42
2019-04-20T10:22:50.897Z,21.43
2019-04-20T10:25:42.501Z,21.30
2019-04-20T10:28:37.261Z,21.92
2019-04-20T10:31:28.508Z,21.53
2019-04-20T10:34:22.809Z,21.47
2019-04-20T10:37:24.303Z,21.51
2019-04-20T10:40:30.713Z,19.77
2019-04-20T10:43:07.955Z,19.43
2019-04-20T10:45:59.205Z,20.07
2019-04-20T10:48:53.230Z,19.74
2019-04-20T10:51:42.179Z,19.40
2019-04-20T10:54:32.360Z,18.80
2019-04-20T10:57:23.650Z,18.16
2019-04-20T11:00:15.599Z,18.10
2019-04-20T11:03:05.862Z,17.37
2019-04-20T11:05:56.530Z,17.17
2019-04-20T11:08:48.701Z,15.81
2019-04-20T11:11:39.069Z,15.34
2019-04-20T11:14:33.572Z,15.94
2019-04-20T11:17:20.768Z,15.83
2019-04-20T11:20:11.157Z,15.55
2019-04-20T11:23:02.362Z,15.82
2019-04-20T11:25:52.678Z,16.35
2019-04-20T11:28:42.144Z,15.62
2019-04-20T11:31:38.739Z,15.65
2019-04-20T11:34:28.613Z,15.25
2019-04-20T11:37:16.951Z,14.85
2019-04-20T11:40:08.772Z,14.69
2019-04-20T11:42:59.538Z,14.42
2019-04-20T11:45:51.011Z,13.60
2019-04-20T11:48:41.399Z,11.95
2019-04-20T11:51:31.812Z,12.26
2019-04-20T11:54:22.155Z,12.56
2019-04-20T11:57:11.647Z,12.50
2019-04-20T12:00:01.696Z,13.03
2019-04-20T12:03:16.013Z,13.54
2019-04-20T12:06:04.701Z,13.86
2019-04-20T12:08:52.788Z,13.77
2019-04-20T12:11:56.041Z,14.02
2019-04-20T12:14:34.632Z,14.32
2019-04-20T12:17:24.243Z,15.04
2019-04-20T12:20:14.903Z,14.62
2019-04-20T12:23:04.778Z,14.91
2019-04-20T12:25:54.646Z,14.94
2019-04-20T12:28:45.434Z,15.24
2019-04-20T12:31:35.870Z,14.91
2019-04-20T12:34:26.480Z,15.17
2019-04-20T12:37:18.732Z,14.82
2019-04-20T12:40:10.071Z,14.33
2019-04-20T12:43:01.249Z,14.57
2019-04-20T12:45:51.703Z,14.87
2019-04-20T12:48:42.033Z,14.69
2019-04-20T12:51:36.638Z,15.15
2019-04-20T12:54:24.728Z,15.70
2019-04-20T12:57:16.460Z,15.54
2019-04-20T13:00:08.071Z,15.46
2019-04-20T13:03:01.120Z,15.75
2019-04-20T13:05:52.025Z,16.22
2019-04-20T13:08:47.599Z,16.31
2019-04-20T13:11:50.698Z,16.44
2019-04-20T13:15:20.299Z,16.48
2019-04-20T13:18:11.514Z,16.56
2019-04-20T13:21:02.011Z,17.17
2019-04-20T13:23:53.165Z,16.93
2019-04-20T13:26:43.255Z,16.95
2019-04-20T13:29:33.132Z,16.79
2019-04-20T13:32:23.529Z,17.01
2019-04-20T13:35:14.518Z,17.37
2019-04-20T13:38:05.510Z,17.04
2019-04-20T13:40:55.721Z,16.96
2019-04-20T13:43:46.034Z,17.28
2019-04-20T13:46:36.860Z,17.26
2019-04-20T13:49:29.063Z,17.52
2019-04-20T13:52:20.277Z,18.14
2019-04-20T13:55:10.803Z,18.01
2019-04-20T13:58:04.695Z,18.05
2019-04-20T14:01:02.982Z,18.11
2019-04-20T14:04:26.816Z,18.39
2019-04-20T14:07:18.344Z,18.02
2019-04-20T14:10:09.402Z,17.92
2019-04-20T14:13:06.118Z,18.17
2019-04-20T14:15:51.280Z,18.07
2019-04-20T14:18:42.884Z,17.87
2019-04-20T14:21:34.217Z,18.05
2019-04-20T14:24:24.807Z,18.10
2019-04-20T14:27:15.159Z,18.29
2019-04-20T14:30:06.771Z,18.35
2019-04-20T14:32:56.885Z,18.54
2019-04-20T14:35:47.206Z,18.42
2019-04-20T14:38:38.342Z,18.13
2019-04-20T14:41:28.466Z,18.12
2019-04-20T14:44:19.480Z,18.09
2019-04-20T14:47:09.781Z,18.44
2019-04-20T14:50:02.927Z,18.54
2019-04-20T14:52:54.054Z,18.63
2019-04-20T14:55:44.318Z,18.57
2019-04-20T14:58:51.366Z,18.43
2019-04-20T15:01:44.939Z,18.65
2019-04-20T15:04:35.377Z,18.40
2019-04-20T15:07:26.605Z,18.83
2019-04-20T15:10:18.709Z,18.87
2019-04-20T15:13:10.140Z,18.78
2019-04-20T15:16:00.100Z,18.32
2019-04-20T15:19:09.676Z,18.60
2019-04-20T15:22:01.309Z,19.13
2019-04-20T15:24:51.607Z,20.12
2019-04-20T15:27:44.740Z,19.91
2019-04-20T15:30:34.221Z,19.95
2019-04-20T15:33:25.123Z,20.32
2019-04-20T15:36:15.934Z,20.45
2019-04-20T15:39:09.414Z,20.37
2019-04-20T15:41:59.599Z,20.34
2019-04-20T15:44:51.325Z,20.11
2019-04-20T15:47:41.471Z,20.24
2019-04-20T15:50:31.826Z,20.28
2019-04-20T15:53:21.894Z,20.55
2019-04-20T15:56:14.421Z,20.59
2019-04-20T15:59:04.391Z,20.83
2019-04-20T16:01:59.612Z,20.72
2019-04-20T16:04:54.039Z,20.86
2019-04-20T16:07:50.594Z,20.87
2019-04-20T16:10:37.214Z,20.92
2019-04-20T16:13:35.066Z,20.79
2019-04-20T16:16:19.641Z,20.74
2019-04-20T16:19:25.067Z,20.86
2019-04-20T16:22:01.702Z,21.11
2019-04-20T16:24:55.818Z,21.17
2019-04-20T16:27:45.689Z,21.43
2019-04-20T16:30:35.837Z,21.33
2019-04-20T16:33:26.336Z,21.38
2019-04-20T16:36:16.544Z,21.63
2019-04-20T16:39:09.724Z,21.75
2019-04-20T16:42:02.384Z,21.72
2019-04-20T16:44:53.633Z,21.66
2019-04-20T16:47:44.141Z,21.79
2019-04-20T16:50:35.229Z,22.00
2019-04-20T16:53:26.760Z,21.80
2019-04-20T16:56:18.953Z,21.81
2019-04-20T16:59:10.330Z,21.83
2019-04-20T17:02:00.585Z,21.91
2019-04-20T17:04:53.313Z,22.02
2019-04-20T17:07:44.880Z,21.97
2019-04-20T17:10:34.956Z,22.24
2019-04-20T17:13:35.225Z,22.45
2019-04-20T17:16:17.544Z,22.38
2019-04-20T17:19:08.354Z,22.46
2019-04-20T17:21:59.159Z,22.44
2019-04-20T17:24:51.535Z,22.69
2019-04-20T17:28:00.196Z,22.65
2019-04-20T17:31:13.579Z,22.64
2019-04-20T17:34:29.731Z,22.71
2019-04-20T17:37:06.599Z,22.76
2019-04-20T17:40:19.170Z,22.80
2019-04-20T17:42:59.997Z,22.93
2019-04-20T17:45:50.371Z,23.30
2019-04-20T17:48:43.255Z,23.32
2019-04-20T17:51:47.945Z,23.39
2019-04-20T17:54:23.128Z,23.75
2019-04-20T17:57:13.277Z,24.11
2019-04-20T18:00:15.714Z,24.79
2019-04-20T18:03:41.226Z,25.07
2019-04-20T18:06:18.357Z,25.10
2019-04-20T18:09:03.131Z,25.31
2019-04-20T18:11:50.199Z,25.61
2019-04-20T18:14:48.069Z,25.71
2019-04-20T18:18:00.246Z,25.69
2019-04-20T18:21:06.441Z,25.90
2019-04-20T18:23:58.159Z,26.29
2019-04-20T18:27:07.192Z,26.48
2019-04-20T18:29:58.419Z,26.75
2019-04-20T18:32:37.745Z,26.75
2019-04-20T18:35:36.210Z,27.08
2019-04-20T18:38:21.898Z,27.03
2019-04-20T18:41:23.068Z,27.18
2019-04-20T18:44:04.667Z,27.30
2019-04-20T18:47:21.621Z,27.57
2019-04-20T18:49:57.179Z,27.61
2019-04-20T18:52:40.079Z,27.76
2019-04-20T18:55:41.173Z,27.98
2019-04-20T18:58:22.902Z,28.12
2019-04-20T19:01:13.311Z,28.27
2019-04-20T19:04:03.729Z,28.44
2019-04-20T19:06:56.237Z,28.59
2019-04-20T19:09:48.480Z,28.81
2019-04-20T19:12:47.771Z,29.02
2019-04-20T19:16:16.637Z,29.45
2019-04-20T19:19:24.436Z,29.51
2019-04-20T19:22:08.002Z,29.69
2019-04-20T19:24:58.474Z,29.83
2019-04-20T19:27:52.660Z,30.07
2019-04-20T19:30:46.817Z,30.50
2019-04-20T19:33:53.503Z,30.72
2019-04-20T19:36:34.051Z,31.04
2019-04-20T19:39:30.318Z,31.25
2019-04-20T19:42:18.192Z,31.46
2019-04-20T19:45:27.773Z,31.72
2019-04-20T19:48:09.548Z,31.90
2019-04-20T19:51:05.904Z,32.09
2019-04-20T19:53:53.132Z,32.34
2019-04-20T19:56:42.483Z,32.68
2019-04-20T19:59:26.002Z,33.03
2019-04-20T20:02:09.774Z,33.15
2019-04-20T20:05:05.387Z,33.30
2019-04-20T20:07:57.453Z,33.54
2019-04-20T20:10:45.714Z,33.73
2019-04-20T20:13:42.053Z,33.88
2019-04-20T20:16:50.488Z,33.99
2019-04-20T20:19:32.375Z,34.14
2019-04-20T20:22:21.679Z,34.35
2019-04-20T20:25:03.242Z,34.37
2019-04-20T20:28:03.615Z,34.58
2019-04-20T20:30:58.115Z,34.85
2019-04-20T20:33:56.476Z,34.96
2019-04-20T20:36:38.295Z,35.22
2019-04-20T20:39:27.645Z,35.37
2019-04-20T20:42:28.179Z,35.32
2019-04-20T20:45:19.037Z,35.45
2019-04-20T20:48:15.786Z,35.61
2019-04-20T20:51:10.561Z,35.81
2019-04-20T20:53:54.029Z,35.90
2019-04-20T20:56:42.264Z,36.11
2019-04-20T20:59:35.404Z,36.01
2019-04-20T21:02:23.649Z,35.90
2019-04-20T21:05:09.696Z,35.98
2019-04-20T21:07:59.732Z,36.04
2019-04-20T21:10:51.065Z,36.39
2019-04-20T21:13:46.485Z,36.46
2019-04-20T21:16:36.748Z,36.59
2019-04-20T21:19:45.319Z,36.67
2019-04-20T21:22:33.825Z,36.77
2019-04-20T21:25:27.693Z,36.96
2019-04-20T21:28:13.210Z,37.09
2019-04-20T21:31:08.426Z,37.17
2019-04-20T21:33:55.260Z,37.35
2019-04-20T21:36:47.170Z,37.43
2019-04-20T21:39:44.191Z,37.53
2019-04-20T21:42:33.893Z,37.77
2019-04-20T21:45:25.520Z,37.94
2019-04-20T21:48:35.589Z,38.12
2019-04-20T21:51:18.944Z,38.18
2019-04-20T21:53:58.718Z,38.33
2019-04-20T21:56:57.510Z,38.54
2019-04-20T21:59:45.000Z,38.59
2019-04-20T22:02:37.737Z,38.60
2019-04-20T22:05:23.408Z,38.75
2019-04-20T22:08:16.045Z,38.72
2019-04-20T22:11:05.960Z,38.81
2019-04-20T22:13:55.951Z,38.86
2019-04-20T22:16:49.686Z,39.01
2019-04-20T22:19:45.764Z,39.02
2019-04-20T22:22:45.441Z,38.94
2019-04-20T22:25:37.395Z,39.16
2019-04-20T22:28:13.903Z,39.18
2019-04-20T22:31:06.248Z,39.55
2019-04-20T22:33:56.333Z,39.68
2019-04-20T22:36:48.621Z,39.69
2019-04-20T22:39:46.510Z,39.80
2019-04-20T22:42:37.740Z,39.71
2019-04-20T22:45:25.422Z,39.60
2019-04-20T22:48:18.940Z,39.80
2019-04-20T22:51:25.987Z,39.80
2019-04-20T22:54:17.551Z,39.96
2019-04-20T22:57:02.452Z,39.98
2019-04-20T22:59:52.400Z,40.08
2019-04-20T23:02:34.780Z,40.21
2019-04-20T23:05:25.268Z,40.19
2019-04-20T23:08:15.184Z,40.29
2019-04-20T23:11:09.355Z,40.38
2019-04-20T23:13:57.971Z,40.38
2019-04-20T23:16:51.826Z,40.39
2019-04-20T23:19:47.215Z,40.48
2019-04-20T23:22:37.058Z,40.70
2019-04-20T23:25:23.008Z,40.83
2019-04-20T23:28:15.863Z,40.87
2019-04-20T23:31:11.671Z,41.01
2019-04-20T23:34:01.719Z,41.04
2019-04-20T23:36:50.614Z,41.03
2019-04-20T23:39:42.845Z,40.97
2019-04-20T23:42:45.547Z,41.10
2019-04-20T23:45:57.113Z,41.18
2019-04-20T23:49:15.143Z,41.14
2019-04-20T23:52:16.784Z,41.18
2019-04-20T23:54:55.722Z,41.30
2019-04-20T23:57:41.868Z,41.47
